Time;durP1;ratioP1;P1;durP2;ratioP2;P2;SDS_P1;SDS_P2;PMS_P1;PMS_P2;Temp;Humidity;BMP_temperature;BMP_pressure;BME280_temperature;BME280_humidity;BME280_pressure;Samples;Min_cycle;Max_cycle;Signal;HPM_P1;HPM_P2
2022/05/28 00:02:11;;;;;;;16.58;2.70;;;;;;;6.08;73.89;100743.56;5037145;28;20113;-69
2022/05/28 00:04:37;;;;;;;18.35;2.22;;;;;;;6.10;74.05;100746.91;5036756;28;20145;-69
2022/05/28 00:07:04;;;;;;;9.68;1.50;;;;;;;6.12;73.62;100739.66;5036479;28;20085;-69
2022/05/28 00:09:31;;;;;;;10.20;1.27;;;;;;;6.12;73.92;100744.13;5036747;28;20136;-68
2022/05/28 00:11:57;;;;;;;10.07;1.35;;;;;;;6.04;73.75;100736.78;5036236;28;20049;-70
2022/05/28 00:14:24;;;;;;;9.13;1.55;;;;;;;6.01;73.87;100734.41;5035977;28;20148;-68
2022/05/28 00:16:50;;;;;;;4.88;1.48;;;;;;;6.04;73.94;100730.63;5037003;28;20400;-69
2022/05/28 00:19:17;;;;;;;12.15;1.73;;;;;;;6.02;73.72;100729.91;5037194;28;20053;-69
2022/05/28 00:21:44;;;;;;;9.45;2.05;;;;;;;6.07;73.93;100722.38;5036707;28;20061;-70
2022/05/28 00:24:10;;;;;;;22.25;4.72;;;;;;;6.04;73.99;100731.44;5035777;28;20062;-69
2022/05/28 00:26:37;;;;;;;14.35;2.60;;;;;;;6.01;74.09;100715.75;5036493;28;20088;-69
2022/05/28 00:29:03;;;;;;;18.25;3.03;;;;;;;6.07;73.92;100720.53;5037083;28;20140;-69
2022/05/28 00:31:30;;;;;;;13.00;2.50;;;;;;;6.03;74.01;100728.94;5035180;28;20114;-69
2022/05/28 00:33:56;;;;;;;12.88;2.13;;;;;;;6.03;74.06;100715.63;5034874;28;20049;-69
2022/05/28 00:36:23;;;;;;;11.95;1.50;;;;;;;5.95;74.42;100717.13;5035000;28;20103;-69
2022/05/28 00:38:50;;;;;;;11.70;2.63;;;;;;;5.96;74.20;100713.47;5035453;28;20140;-68
2022/05/28 00:41:16;;;;;;;9.63;1.60;;;;;;;5.94;74.19;100715.44;5035144;28;20489;-70
2022/05/28 00:43:45;;;;;;;13.43;1.88;;;;;;;5.98;74.21;100713.34;5034625;28;20118;-69
2022/05/28 00:46:22;;;;;;;15.35;1.92;;;;;;;5.98;74.28;100711.53;5034766;28;20096;-69
2022/05/28 00:48:55;;;;;;;11.57;2.42;;;;;;;5.92;74.30;100713.88;5034096;28;20493;-69
2022/05/28 00:51:26;;;;;;;15.02;2.28;;;;;;;5.98;74.05;100697.38;5035126;28;20050;-69
2022/05/28 00:53:56;;;;;;;18.80;2.42;;;;;;;5.96;73.86;100705.47;5035555;28;20083;-68
2022/05/28 00:56:24;;;;;;;12.40;2.10;;;;;;;5.96;73.61;100704.66;5034909;28;20053;-69
2022/05/28 00:58:51;;;;;;;8.98;1.85;;;;;;;5.96;73.74;100699.31;5035381;28;20136;-69
2022/05/28 01:01:21;;;;;;;14.82;2.75;;;;;;;5.98;73.58;100692.91;5035110;28;20462;-70
2022/05/28 01:04:10;;;;;;;10.70;2.30;;;;;;;5.94;73.61;100693.25;5034534;28;20064;-70
2022/05/28 01:07:23;;;;;;;9.38;1.98;;;;;;;5.95;73.96;100692.31;5035193;28;20641;-70
2022/05/28 01:10:02;;;;;;;14.43;2.63;;;;;;;5.92;73.48;100684.59;5035541;28;20521;-69
2022/05/28 01:12:57;;;;;;;12.20;2.22;;;;;;;5.98;73.10;100690.22;5034171;28;20152;-68
2022/05/28 01:15:31;;;;;;;11.77;1.92;;;;;;;5.95;73.35;100684.31;5034501;28;20049;-69
2022/05/28 01:18:11;;;;;;;13.70;1.80;;;;;;;5.97;72.96;100679.69;5034353;28;20132;-69
2022/05/28 01:20:54;;;;;;;15.82;3.28;;;;;;;5.92;73.27;100680.09;5034767;28;20080;-69
2022/05/28 01:23:51;;;;;;;13.30;1.90;;;;;;;5.95;72.89;100685.16;5034355;28;20095;-69
2022/05/28 01:26:56;;;;;;;12.38;2.30;;;;;;;5.94;72.66;100675.50;5034298;28;20115;-69
2022/05/28 01:29:26;;;;;;;11.85;2.00;;;;;;;5.98;72.71;100674.25;5035064;28;20168;-69
2022/05/28 01:31:54;;;;;;;11.10;2.67;;;;;;;5.93;72.70;100673.78;5034868;28;20497;-69
2022/05/28 01:34:23;;;;;;;14.10;2.95;;;;;;;5.98;72.74;100665.44;5034423;28;20107;-69
2022/05/28 01:36:50;;;;;;;10.27;2.42;;;;;;;5.93;72.77;100659.63;5034716;28;20467;-69
2022/05/28 01:39:18;;;;;;;10.68;2.00;;;;;;;5.93;72.56;100663.13;5016980;28;20137;-69
2022/05/28 01:41:47;;;;;;;10.35;1.95;;;;;;;5.89;72.60;100656.38;5034850;28;20462;-69
2022/05/28 01:44:15;;;;;;;16.67;2.55;;;;;;;5.87;72.33;100654.81;5034238;28;20050;-69
2022/05/28 01:46:45;;;;;;;13.95;2.20;;;;;;;5.90;72.12;100657.22;5033734;28;20050;-69
2022/05/28 01:49:15;;;;;;;15.93;2.22;;;;;;;5.91;71.79;100659.78;5033718;28;20055;-69
2022/05/28 01:51:49;;;;;;;18.85;2.80;;;;;;;5.92;71.75;100644.66;5034102;28;20119;-69
2022/05/28 01:54:18;;;;;;;16.02;2.58;;;;;;;5.86;71.96;100639.84;5034190;28;20100;-69
2022/05/28 01:56:49;;;;;;;10.75;2.15;;;;;;;5.91;71.67;100640.31;5034477;28;20397;-69
2022/05/28 01:59:20;;;;;;;13.07;2.08;;;;;;;5.93;71.78;100635.66;5035872;28;20404;-69
2022/05/28 02:01:47;;;;;;;12.48;2.03;;;;;;;5.90;71.84;100627.94;5037934;28;20455;-69
2022/05/28 02:04:14;;;;;;;13.32;2.38;;;;;;;5.92;71.75;100641.97;5037735;28;20400;-69
2022/05/28 02:06:41;;;;;;;17.77;2.50;;;;;;;5.86;72.34;100631.84;5037796;28;20053;-69
2022/05/28 02:09:21;;;;;;;15.27;2.30;;;;;;;5.82;72.41;100636.59;5037619;28;20068;-69
2022/05/28 02:12:06;;;;;;;16.20;2.63;;;;;;;5.84;72.76;100625.84;5037621;28;20136;-70
2022/05/28 02:14:57;;;;;;;16.42;2.45;;;;;;;5.87;72.54;100636.19;5037713;28;20068;-69
2022/05/28 02:17:36;;;;;;;22.17;2.13;;;;;;;5.86;72.75;100626.53;5037929;28;20049;-68
2022/05/28 02:20:21;;;;;;;14.68;1.98;;;;;;;5.80;73.19;100619.91;5037656;28;20049;-70
2022/05/28 02:23:14;;;;;;;26.05;3.80;;;;;;;5.80;73.20;100627.03;5037408;28;20061;-69
2022/05/28 02:25:45;;;;;;;14.48;2.53;;;;;;;5.80;73.07;100619.91;5037791;28;20057;-69
2022/05/28 02:28:14;;;;;;;13.75;2.33;;;;;;;5.77;72.57;100621.03;5020205;28;20050;-69
2022/05/28 02:30:48;;;;;;;17.20;3.15;;;;;;;5.85;72.62;100606.22;5037326;28;20529;-69
2022/05/28 02:33:15;;;;;;;12.52;2.03;;;;;;;5.83;72.69;100616.13;5037278;28;20049;-69
2022/05/28 02:35:42;;;;;;;14.68;2.63;;;;;;;5.77;72.49;100598.91;5037474;28;20045;-70
2022/05/28 02:38:08;;;;;;;15.07;2.45;;;;;;;5.77;72.58;100612.19;5037314;28;20053;-69
2022/05/28 02:40:35;;;;;;;16.88;2.22;;;;;;;5.79;72.62;100604.91;5037475;28;20052;-70
2022/05/28 02:43:01;;;;;;;17.08;2.33;;;;;;;5.84;72.25;100600.06;5037814;28;20140;-69
2022/05/28 02:45:28;;;;;;;12.63;2.35;;;;;;;5.76;72.51;100600.69;5037391;28;20460;-70
2022/05/28 02:47:56;;;;;;;14.05;2.38;;;;;;;5.68;72.85;100607.66;5037850;28;20497;-69
2022/05/28 02:50:26;;;;;;;12.35;2.15;;;;;;;5.74;72.66;100599.16;5037143;28;20442;-69
2022/05/28 02:52:53;;;;;;;13.50;2.17;;;;;;;5.70;72.46;100598.56;5036924;28;20104;-70
2022/05/28 02:55:20;;;;;;;8.90;1.70;;;;;;;5.79;72.21;100598.75;5036983;28;20454;-69
2022/05/28 02:57:46;;;;;;;19.05;2.33;;;;;;;5.73;72.62;100590.34;5036785;28;20089;-69
2022/05/28 03:00:14;;;;;;;19.60;2.28;;;;;;;5.74;72.62;100597.31;5037178;28;20050;-69
2022/05/28 03:02:42;;;;;;;19.95;2.15;;;;;;;5.81;72.13;100596.81;5036886;28;20136;-69
2022/05/28 03:05:10;;;;;;;9.30;2.00;;;;;;;5.77;72.34;100597.06;5037042;28;20391;-70
2022/05/28 03:07:37;;;;;;;10.05;1.63;;;;;;;5.69;72.30;100588.88;5036478;28;20076;-70
2022/05/28 03:10:04;;;;;;;13.30;1.73;;;;;;;5.68;72.55;100584.53;5035738;28;20077;-69
2022/05/28 03:12:31;;;;;;;13.88;2.03;;;;;;;5.79;72.25;100591.59;5035877;28;20088;-69
2022/05/28 03:14:57;;;;;;;12.80;2.03;;;;;;;5.74;72.30;100585.84;5036140;28;20045;-70
2022/05/28 03:17:23;;;;;;;14.02;2.13;;;;;;;5.71;72.16;100578.13;5036092;28;20140;-70
2022/05/28 03:19:50;;;;;;;14.63;2.25;;;;;;;5.77;72.38;100580.25;5036022;28;20140;-69
2022/05/28 03:22:17;;;;;;;15.52;2.22;;;;;;;5.79;72.26;100575.63;5018362;28;20085;-68
2022/05/28 03:24:43;;;;;;;6.78;1.67;;;;;;;5.81;72.33;100578.19;5036003;28;20061;-69
2022/05/28 03:27:10;;;;;;;13.30;2.30;;;;;;;5.80;72.50;100573.81;5036424;28;20124;-70
2022/05/28 03:29:36;;;;;;;13.68;1.98;;;;;;;5.77;72.66;100562.47;5036336;28;20472;-70
2022/05/28 03:32:03;;;;;;;15.90;2.05;;;;;;;5.81;72.50;100564.88;5036010;28;20141;-69
2022/05/28 03:34:30;;;;;;;11.30;1.95;;;;;;;5.86;72.05;100570.63;5036043;28;20564;-69
2022/05/28 03:36:56;;;;;;;12.45;2.17;;;;;;;5.87;72.48;100572.28;5036173;28;20538;-70
2022/05/28 03:39:23;;;;;;;15.50;2.28;;;;;;;6.00;71.96;100570.25;5036012;28;20057;-69
2022/05/28 03:41:49;;;;;;;13.60;1.58;;;;;;;5.94;71.54;100565.47;5035913;28;20136;-70
2022/05/28 03:44:16;;;;;;;11.73;1.70;;;;;;;5.93;71.73;100564.63;5035782;28;20148;-70
2022/05/28 03:46:43;;;;;;;9.90;1.80;;;;;;;5.97;71.39;100563.38;5036707;28;20136;-69
2022/05/28 03:49:25;;;;;;;16.08;2.60;;;;;;;6.05;71.13;100568.03;5036015;28;20535;-69
2022/05/28 03:51:51;;;;;;;12.30;2.10;;;;;;;6.06;71.19;100563.56;5036129;28;20049;-69
2022/05/28 03:54:18;;;;;;;14.98;2.17;;;;;;;6.02;71.05;100562.16;5035948;28;20541;-70
2022/05/28 03:56:47;;;;;;;12.90;2.45;;;;;;;6.08;71.13;100557.13;5035781;28;20049;-69
2022/05/28 03:59:13;;;;;;;13.25;2.17;;;;;;;6.04;71.07;100561.00;5017678;28;20060;-69
2022/05/28 04:01:40;;;;;;;12.82;2.30;;;;;;;6.08;70.80;100561.59;5035727;28;20540;-68
2022/05/28 04:04:06;;;;;;;15.63;2.65;;;;;;;6.14;70.48;100561.88;5035854;28;20485;-70
2022/05/28 04:06:35;;;;;;;14.07;2.10;;;;;;;6.18;70.33;100563.31;5035539;28;20053;-70
2022/05/28 04:09:03;;;;;;;9.98;2.28;;;;;;;6.19;70.28;100553.50;5035513;28;20053;-68
2022/05/28 04:11:30;;;;;;;8.77;1.80;;;;;;;6.27;70.09;100560.84;5035393;28;20045;-68
2022/05/28 04:13:56;;;;;;;13.35;2.30;;;;;;;6.26;70.17;100567.16;5035639;28;20472;-69
2022/05/28 04:16:24;;;;;;;18.83;2.80;;;;;;;6.27;69.69;100564.34;5035713;28;20481;-70
2022/05/28 04:18:51;;;;;;;35.25;2.53;;;;;;;6.29;69.88;100553.53;5035680;28;20507;-69
2022/05/28 04:21:17;;;;;;;16.52;2.20;;;;;;;6.34;69.70;100562.00;5031966;28;20080;-69
2022/05/28 04:23:44;;;;;;;12.05;1.90;;;;;;;6.33;69.78;100562.97;5034917;28;20075;-68
2022/05/28 04:26:11;;;;;;;13.75;2.78;;;;;;;6.27;69.74;100558.19;5035420;28;20489;-69
2022/05/28 04:28:38;;;;;;;8.98;1.90;;;;;;;6.21;70.20;100557.69;5035755;28;20099;-69
2022/05/28 04:31:04;;;;;;;17.42;2.10;;;;;;;6.28;69.98;100555.38;5035047;28;20046;-70
2022/05/28 04:33:31;;;;;;;11.30;1.98;;;;;;;6.26;69.92;100557.34;5035401;28;20053;-68
2022/05/28 04:35:58;;;;;;;8.80;2.13;;;;;;;6.23;70.21;100566.41;5035304;28;20081;-70
2022/05/28 04:38:24;;;;;;;13.98;2.63;;;;;;;6.23;70.88;100581.56;5035275;28;20075;-70
2022/05/28 04:40:51;;;;;;;21.70;1.92;;;;;;;6.26;72.20;100596.47;5035202;28;20448;-70
2022/05/28 04:43:18;;;;;;;16.15;2.53;;;;;;;6.22;73.67;100595.88;5034793;28;20069;-70
2022/05/28 04:45:45;;;;;;;14.35;2.15;;;;;;;6.06;74.68;100593.69;5034986;28;20084;-70
2022/05/28 04:48:12;;;;;;;10.02;1.63;;;;;;;5.92;75.45;100600.22;5034449;28;20057;-69
2022/05/28 04:50:39;;;;;;;8.15;1.50;;;;;;;5.86;76.25;100607.88;5034974;28;20136;-69
2022/05/28 04:53:05;;;;;;;10.07;1.63;;;;;;;5.91;76.64;100593.22;5034577;28;20119;-70
2022/05/28 04:55:32;;;;;;;11.70;2.60;;;;;;;5.99;77.30;100589.88;5034649;28;20128;-70
2022/05/28 04:57:58;;;;;;;6.47;1.48;;;;;;;5.88;75.02;100590.81;5034478;28;20445;-70
2022/05/28 05:00:26;;;;;;;6.78;1.33;;;;;;;5.90;74.33;100596.00;5035050;28;20052;-70
2022/05/28 05:02:53;;;;;;;7.32;1.92;;;;;;;5.86;74.57;100597.25;5035265;28;20061;-70
2022/05/28 05:05:21;;;;;;;4.88;1.02;;;;;;;5.91;73.94;100598.53;5035368;28;20152;-70
2022/05/28 05:07:47;;;;;;;10.13;1.85;;;;;;;5.99;74.67;100597.88;5033891;28;20103;-70
2022/05/28 05:10:14;;;;;;;8.93;2.13;;;;;;;6.08;74.36;100597.06;5034881;28;20114;-70
2022/05/28 05:12:40;;;;;;;6.22;1.30;;;;;;;6.10;74.10;100591.59;5034094;28;20080;-70
2022/05/28 05:15:11;;;;;;;7.22;2.05;;;;;;;6.08;74.75;100589.09;5034076;28;20049;-70
2022/05/28 05:17:37;;;;;;;9.93;1.20;;;;;;;6.03;74.49;100598.44;5034183;28;20537;-68
2022/05/28 05:20:04;;;;;;;8.68;1.58;;;;;;;6.18;74.63;100600.63;5034670;28;20565;-70
2022/05/28 05:22:30;;;;;;;8.20;2.28;;;;;;;6.34;74.30;100599.28;5034475;28;20077;-68
2022/05/28 05:24:58;;;;;;;9.63;1.85;;;;;;;6.30;74.72;100600.53;5034680;28;20469;-70
2022/05/28 05:27:24;;;;;;;7.28;1.80;;;;;;;6.36;73.30;100592.84;5034674;28;20533;-70
2022/05/28 05:29:51;;;;;;;13.70;2.15;;;;;;;6.38;73.23;100595.38;5033896;28;20060;-70
2022/05/28 05:32:17;;;;;;;6.63;1.55;;;;;;;6.45;73.38;100596.50;5034691;28;20080;-70
2022/05/28 05:34:45;;;;;;;7.85;1.38;;;;;;;6.46;73.22;100598.22;5034556;28;20045;-69
2022/05/28 05:37:12;;;;;;;7.10;1.48;;;;;;;6.48;73.18;100598.91;5034415;28;20050;-68
2022/05/28 05:39:39;;;;;;;9.15;1.98;;;;;;;6.53;72.25;100603.81;5034398;28;20057;-69
2022/05/28 05:42:06;;;;;;;7.13;1.70;;;;;;;6.34;72.58;100599.28;5034795;28;20088;-69
2022/05/28 05:44:32;;;;;;;6.95;1.65;;;;;;;6.44;72.56;100602.81;5035012;28;20468;-68
2022/05/28 05:46:59;;;;;;;5.90;1.38;;;;;;;6.37;72.82;100599.03;5034557;28;20484;-70
2022/05/28 05:49:26;;;;;;;7.20;1.30;;;;;;;6.42;72.84;100608.28;5036071;28;20056;-69
2022/05/28 05:51:52;;;;;;;17.35;6.85;;;;;;;6.46;72.27;100616.88;5036268;28;20092;-69
2022/05/28 05:54:19;;;;;;;13.15;3.38;;;;;;;6.55;72.51;100618.69;5035643;28;20140;-69
2022/05/28 05:56:46;;;;;;;9.85;1.90;;;;;;;6.47;72.09;100615.88;5035354;28;20121;-69
2022/05/28 05:59:12;;;;;;;11.00;2.25;;;;;;;6.58;70.99;100622.91;5034533;28;20092;-69
2022/05/28 06:01:39;;;;;;;10.48;1.52;;;;;;;6.69;70.77;100620.97;5034125;28;20079;-69
2022/05/28 06:04:05;;;;;;;8.45;1.90;;;;;;;6.71;70.49;100627.00;5033683;28;20049;-69
2022/05/28 06:06:32;;;;;;;5.25;1.33;;;;;;;6.83;70.35;100616.22;5033772;28;20489;-69
2022/05/28 06:08:58;;;;;;;6.30;1.75;;;;;;;6.90;70.23;100617.34;5034756;28;20454;-68
2022/05/28 06:11:25;;;;;;;7.97;1.58;;;;;;;6.96;70.01;100622.13;5034022;28;20133;-70
2022/05/28 06:13:52;;;;;;;10.73;1.45;;;;;;;6.92;69.71;100620.72;5033756;28;20144;-70
2022/05/28 06:16:18;;;;;;;8.25;1.50;;;;;;;6.91;68.97;100616.34;5033879;28;20084;-68
2022/05/28 06:18:46;;;;;;;9.75;1.67;;;;;;;6.79;68.95;100620.16;5033595;28;20045;-68
2022/05/28 06:21:12;;;;;;;5.50;1.20;;;;;;;7.02;67.81;100620.75;5034588;28;20096;-68
2022/05/28 06:23:41;;;;;;;6.88;1.42;;;;;;;7.10;68.08;100629.72;5033607;28;20088;-69
2022/05/28 06:26:09;;;;;;;9.35;1.92;;;;;;;7.09;67.03;100633.38;5017041;28;20405;-69
2022/05/28 06:28:36;;;;;;;6.57;1.35;;;;;;;7.04;66.89;100632.09;5033508;28;20045;-68
2022/05/28 06:31:06;;;;;;;7.95;1.50;;;;;;;7.09;66.77;100636.03;5033918;28;20465;-70
2022/05/28 06:33:35;;;;;;;9.77;1.75;;;;;;;7.00;66.56;100628.03;5033830;28;20497;-69
2022/05/28 06:36:03;;;;;;;7.78;1.50;;;;;;;7.12;66.68;100633.09;5034459;28;20078;-70
2022/05/28 06:38:29;;;;;;;10.70;1.50;;;;;;;7.24;66.46;100638.28;5033674;28;20145;-69
2022/05/28 06:40:56;;;;;;;5.55;1.35;;;;;;;7.21;65.31;100641.25;5033702;28;20081;-68
2022/05/28 06:43:24;;;;;;;5.40;1.30;;;;;;;7.18;65.76;100637.03;5033681;28;20053;-69
2022/05/28 06:45:50;;;;;;;11.30;1.35;;;;;;;7.38;65.09;100632.53;5034463;28;20429;-69
2022/05/28 06:48:17;;;;;;;8.52;1.40;;;;;;;7.24;64.75;100632.97;5036850;28;20136;-69
2022/05/28 06:51:01;;;;;;;7.65;1.95;;;;;;;7.21;64.24;100618.06;5036710;28;20132;-69
2022/05/28 06:53:29;;;;;;;11.38;1.55;;;;;;;7.47;63.27;100631.69;5037160;28;20053;-69
2022/05/28 06:55:56;;;;;;;8.77;1.38;;;;;;;7.75;63.17;100626.44;5037462;28;20050;-70
2022/05/28 06:58:23;;;;;;;8.20;1.48;;;;;;;7.58;64.13;100623.50;5036795;28;20049;-69
2022/05/28 07:00:49;;;;;;;8.73;1.63;;;;;;;7.62;64.01;100630.25;5036840;28;20132;-69
2022/05/28 07:03:19;;;;;;;13.15;2.10;;;;;;;7.81;63.05;100623.16;5037279;28;20053;-69
2022/05/28 07:05:46;;;;;;;14.05;1.83;;;;;;;7.66;64.06;100620.13;5036717;28;20537;-68
2022/05/28 07:08:12;;;;;;;11.30;1.67;;;;;;;7.99;63.05;100636.66;5036878;28;20092;-69
2022/05/28 07:10:43;;;;;;;16.02;2.50;;;;;;;7.96;62.97;100624.44;5036780;28;20065;-69
2022/05/28 07:13:10;;;;;;;11.10;1.70;;;;;;;8.64;61.06;100617.91;5036931;28;20096;-68
2022/05/28 07:15:37;;;;;;;9.95;1.60;;;;;;;8.76;60.53;100614.91;5036958;28;20557;-68
2022/05/28 07:18:05;;;;;;;6.68;1.48;;;;;;;9.20;59.85;100616.84;5036946;28;20053;-68
2022/05/28 07:20:31;;;;;;;11.18;1.92;;;;;;;9.41;58.61;100620.06;5037031;28;20136;-69
2022/05/28 07:22:58;;;;;;;8.95;1.63;;;;;;;9.75;57.24;100614.78;5037445;28;20120;-69
2022/05/28 07:25:24;;;;;;;11.15;1.75;;;;;;;9.67;57.28;100624.59;5037224;28;20063;-68
2022/05/28 07:27:51;;;;;;;10.68;1.63;;;;;;;9.92;56.60;100612.19;5036506;28;20485;-69
2022/05/28 07:30:17;;;;;;;5.95;1.35;;;;;;;9.62;57.20;100617.03;5036413;28;20085;-69
2022/05/28 07:32:44;;;;;;;10.40;1.80;;;;;;;9.23;57.10;100625.41;5036588;28;20140;-67
2022/05/28 07:35:11;;;;;;;7.57;1.75;;;;;;;9.11;57.81;100625.78;5036322;28;20489;-68
2022/05/28 07:37:38;;;;;;;6.53;1.50;;;;;;;8.75;58.33;100633.78;5036323;28;20137;-69
2022/05/28 07:40:05;;;;;;;8.43;1.52;;;;;;;8.64;58.71;100618.75;5035777;28;20140;-68
2022/05/28 07:42:31;;;;;;;8.82;2.05;;;;;;;8.52;58.23;100625.31;5036254;28;20564;-69
2022/05/28 07:44:57;;;;;;;5.20;1.50;;;;;;;8.38;58.61;100627.50;5036759;28;20444;-69
2022/05/28 07:47:24;;;;;;;10.70;1.38;;;;;;;8.41;59.03;100626.38;5036219;28;20136;-68
2022/05/28 07:49:50;;;;;;;8.27;1.95;;;;;;;8.43;59.15;100623.53;5036174;28;20404;-69
2022/05/28 07:52:17;;;;;;;8.43;1.98;;;;;;;8.44;58.79;100618.06;5036279;28;20087;-69
2022/05/28 07:54:44;;;;;;;14.30;1.98;;;;;;;8.27;59.24;100617.00;5035545;28;20096;-68
2022/05/28 07:57:10;;;;;;;12.65;1.52;;;;;;;8.58;58.09;100622.06;5035407;28;20061;-67
2022/05/28 07:59:37;;;;;;;14.10;2.65;;;;;;;8.65;56.79;100624.97;5036318;28;20540;-68
2022/05/28 08:02:03;;;;;;;13.43;2.28;;;;;;;9.19;55.58;100620.47;5036213;28;20132;-68
2022/05/28 08:04:30;;;;;;;11.60;1.95;;;;;;;9.07;54.79;100614.53;5036050;28;20435;-69
2022/05/28 08:06:56;;;;;;;11.10;1.75;;;;;;;9.18;54.53;100624.16;5035572;28;20077;-69
2022/05/28 08:09:23;;;;;;;12.18;2.03;;;;;;;9.63;53.56;100616.03;5035818;28;20378;-68
2022/05/28 08:11:49;;;;;;;16.08;2.05;;;;;;;9.67;53.43;100613.88;5034926;28;20068;-68
2022/05/28 08:14:16;;;;;;;8.93;1.83;;;;;;;10.40;52.63;100611.56;5035692;28;20060;-68
2022/05/28 08:16:42;;;;;;;10.32;1.92;;;;;;;10.27;52.08;100621.94;5035431;28;20100;-68
2022/05/28 08:19:09;;;;;;;10.13;2.03;;;;;;;10.37;51.43;100611.91;5035461;28;20141;-68
2022/05/28 08:24:20;;;;;;;10.27;2.08;;;;;;;11.09;48.58;100617.66;5034899;28;20481;-68
2022/05/28 08:26:47;;;;;;;12.77;2.35;;;;;;;11.44;48.10;100626.41;5035441;28;20478;-67
2022/05/28 08:29:13;;;;;;;10.63;2.13;;;;;;;11.49;48.09;100621.38;5035384;28;20099;-69
2022/05/28 08:31:40;;;;;;;13.90;2.42;;;;;;;11.14;48.43;100619.88;5035661;28;20145;-69
2022/05/28 08:34:06;;;;;;;12.85;1.90;;;;;;;11.05;48.59;100610.09;5018192;28;20045;-68
2022/05/28 08:36:33;;;;;;;7.15;1.92;;;;;;;10.97;48.73;100630.56;5034986;28;20095;-68
2022/05/28 08:38:59;;;;;;;11.48;1.80;;;;;;;11.34;47.83;100623.88;5036129;28;20144;-68
2022/05/28 08:41:35;;;;;;;7.00;1.70;;;;;;;11.75;45.88;100623.88;5034503;28;20050;-68
2022/05/28 08:44:20;;;;;;;11.27;2.20;;;;;;;11.45;45.59;100628.94;5034835;28;20049;-69
2022/05/28 08:46:53;;;;;;;7.72;1.98;;;;;;;10.95;47.56;100629.88;5034688;28;20080;-69
2022/05/28 08:49:23;;;;;;;3.65;1.60;;;;;;;10.62;48.19;100620.09;5034705;28;20049;-69
2022/05/28 08:51:52;;;;;;;11.13;1.63;;;;;;;10.64;48.75;100634.16;5016203;28;20051;-69
2022/05/28 08:54:25;;;;;;;5.10;1.60;;;;;;;10.24;49.53;100632.97;5034641;28;20049;-69
2022/05/28 08:56:56;;;;;;;11.85;1.67;;;;;;;10.40;49.49;100633.03;5034968;28;20073;-69
2022/05/28 08:59:28;;;;;;;7.50;1.73;;;;;;;10.87;48.89;100640.63;5034412;28;20140;-69
2022/05/28 09:02:04;;;;;;;12.13;1.63;;;;;;;11.57;47.66;100637.47;5034069;28;20071;-69
2022/05/28 09:04:38;;;;;;;7.75;2.10;;;;;;;12.00;45.79;100634.59;5034276;28;20087;-68
2022/05/28 09:07:10;;;;;;;9.77;2.40;;;;;;;11.57;44.96;100639.31;5034949;28;20057;-68
2022/05/28 09:09:42;;;;;;;8.82;1.83;;;;;;;11.42;45.53;100640.00;5033829;28;20128;-69
2022/05/28 09:12:28;;;;;;;14.43;2.10;;;;;;;11.91;44.87;100642.69;5034826;28;20494;-69
2022/05/28 09:14:55;;;;;;;11.25;2.05;;;;;;;11.65;45.30;100655.44;5034474;28;20064;-67
2022/05/28 09:17:24;;;;;;;14.23;2.22;;;;;;;10.91;45.71;100647.31;5034870;28;20137;-67
2022/05/28 09:19:53;;;;;;;11.90;2.30;;;;;;;11.13;45.07;100661.13;5035043;28;20470;-68
2022/05/28 09:22:22;;;;;;;13.38;2.10;;;;;;;10.82;46.39;100648.28;5034665;28;20045;-68
2022/05/28 09:24:48;;;;;;;7.95;2.10;;;;;;;11.05;45.64;100653.06;5034555;28;20099;-68
2022/05/28 09:27:36;;;;;;;9.48;1.70;;;;;;;11.22;45.25;100660.97;5034979;28;20049;-68
2022/05/28 09:30:33;;;;;;;9.73;2.08;;;;;;;11.08;45.34;100655.41;5035060;28;20420;-68
2022/05/28 09:33:18;;;;;;;15.50;2.75;;;;;;;11.09;44.81;100652.56;5034635;28;20535;-69
2022/05/28 09:35:56;;;;;;;8.82;2.33;;;;;;;10.95;45.98;100655.88;5034596;28;20081;-68
2022/05/28 09:39:01;;;;;;;11.70;2.28;;;;;;;11.22;44.43;100646.72;5034458;28;20399;-68
2022/05/28 09:42:06;;;;;;;6.15;1.63;;;;;;;11.81;43.08;100654.63;5035056;28;20439;-67
2022/05/28 09:44:47;;;;;;;8.32;2.33;;;;;;;12.56;41.86;100646.19;5034590;28;20512;-69
2022/05/28 09:47:18;;;;;;;12.32;2.55;;;;;;;12.55;40.16;100647.19;5034928;28;20449;-67
2022/05/28 09:49:50;;;;;;;10.07;3.80;;;;;;;12.82;40.10;100643.22;5034666;28;20057;-67
2022/05/28 09:52:21;;;;;;;10.93;2.65;;;;;;;12.34;41.52;100639.69;5034649;28;20128;-67
2022/05/28 09:54:48;;;;;;;9.20;2.10;;;;;;;11.38;43.95;100649.41;5034823;28;20482;-68
2022/05/28 09:57:27;;;;;;;12.27;2.35;;;;;;;11.20;45.60;100649.53;5034319;28;20089;-68
2022/05/28 09:59:59;;;;;;;9.88;1.77;;;;;;;12.12;45.19;100657.44;5036990;28;20100;-70
2022/05/28 10:02:29;;;;;;;6.50;1.70;;;;;;;12.63;44.25;100669.53;5034267;28;20098;-70
2022/05/28 10:05:09;;;;;;;6.93;1.55;;;;;;;13.13;43.84;100666.59;5033197;28;20096;-70
2022/05/28 10:07:45;;;;;;;6.68;1.70;;;;;;;13.80;42.83;100655.97;5034349;28;20104;-70
2022/05/28 10:10:32;;;;;;;5.47;1.58;;;;;;;14.08;41.83;100656.22;5033370;28;20081;-70
2022/05/28 10:13:12;;;;;;;5.90;1.23;;;;;;;14.85;40.40;100663.09;5033775;28;20133;-70
2022/05/28 10:15:43;;;;;;;12.75;2.10;;;;;;;14.85;40.13;100645.00;5034163;28;20061;-70
2022/05/28 10:18:16;;;;;;;10.27;1.98;;;;;;;15.88;38.82;100656.38;5033304;28;20095;-70
2022/05/28 10:20:43;;;;;;;10.23;2.20;;;;;;;15.40;37.62;100651.63;5035895;28;20053;-69
2022/05/28 10:23:15;;;;;;;9.57;1.85;;;;;;;14.68;37.97;100640.81;5037865;28;20088;-69
2022/05/28 10:25:48;;;;;;;11.18;2.67;;;;;;;14.86;38.01;100637.75;5037834;28;20100;-70
2022/05/28 10:28:40;;;;;;;7.15;2.03;;;;;;;15.33;37.07;100647.16;5037720;28;20063;-70
2022/05/28 10:31:15;;;;;;;8.80;2.53;;;;;;;15.31;38.32;100638.41;5020163;28;20049;-71
2022/05/28 10:33:44;;;;;;;7.65;2.70;;;;;;;14.43;39.97;100640.31;5037581;28;20114;-69
2022/05/28 10:36:17;;;;;;;9.60;2.08;;;;;;;13.74;41.83;100633.25;5037985;28;20085;-71
2022/05/28 10:38:44;;;;;;;8.02;2.55;;;;;;;14.18;41.46;100635.19;5037726;28;20136;-72
2022/05/28 10:41:25;;;;;;;14.02;2.40;;;;;;;14.28;41.21;100632.19;5037932;28;20084;-71
2022/05/28 10:43:52;;;;;;;6.13;2.90;;;;;;;14.76;39.50;100628.06;5038805;28;20136;-71
2022/05/28 10:46:45;;;;;;;10.07;2.50;;;;;;;14.46;40.17;100623.72;5037360;28;20147;-71
2022/05/28 10:49:24;;;;;;;8.27;2.40;;;;;;;14.11;40.36;100618.06;5037771;28;20211;-71
2022/05/28 10:52:30;;;;;;;9.48;2.35;;;;;;;13.40;40.70;100632.91;5037385;28;20492;-71
2022/05/28 10:55:18;;;;;;;10.57;2.08;;;;;;;12.55;43.26;100639.94;5037633;28;20533;-70
2022/05/28 10:58:12;;;;;;;10.88;1.90;;;;;;;12.50;42.89;100641.50;5038073;28;20180;-71
2022/05/28 11:00:51;;;;;;;12.30;2.50;;;;;;;13.01;42.02;100629.31;5037375;28;20053;-71
2022/05/28 11:03:34;;;;;;;5.35;1.75;;;;;;;13.37;40.38;100630.56;5037626;28;20131;-72
2022/05/28 11:06:33;;;;;;;9.88;2.13;;;;;;;13.51;39.84;100624.38;5037505;28;20081;-71
2022/05/28 11:09:13;;;;;;;13.13;2.03;;;;;;;13.63;38.69;100625.63;5019807;28;20087;-72
2022/05/28 11:12:03;;;;;;;8.80;1.98;;;;;;;13.54;38.23;100618.63;5018811;28;20481;-72
2022/05/28 11:14:42;;;;;;;5.63;1.85;;;;;;;13.68;38.22;100617.81;5036469;28;20057;-70
2022/05/28 11:17:14;;;;;;;7.43;2.00;;;;;;;13.28;39.05;100633.34;5036456;28;20096;-71
2022/05/28 11:19:50;;;;;;;8.38;2.00;;;;;;;13.39;38.53;100626.69;5036368;28;20140;-71
2022/05/28 11:22:40;;;;;;;10.85;2.20;;;;;;;13.53;39.33;100635.81;5036692;28;20084;-70
2022/05/28 11:25:19;;;;;;;9.93;2.28;;;;;;;13.81;38.71;100628.84;5035832;28;20064;-70
2022/05/28 11:28:23;;;;;;;10.07;2.25;;;;;;;14.52;37.47;100620.28;5036136;28;20092;-71
2022/05/28 11:30:55;;;;;;;11.38;3.58;;;;;;;14.49;37.64;100616.06;5035741;28;20141;-71
2022/05/28 11:33:31;;;;;;;11.48;3.03;;;;;;;13.87;38.42;100618.31;5035445;28;20073;-71
2022/05/28 11:36:08;;;;;;;12.00;3.42;;;;;;;13.20;39.68;100614.50;5035777;28;20144;-72
2022/05/28 11:38:38;;;;;;;12.10;3.70;;;;;;;12.52;41.48;100640.31;5035958;28;20080;-71
2022/05/28 11:41:29;;;;;;;14.68;3.10;;;;;;;12.07;46.42;100659.78;5035463;28;20144;-71
2022/05/28 11:44:07;;;;;;;12.00;2.03;;;;;;;11.58;50.49;100665.19;5035855;28;20175;-71
2022/05/28 11:46:49;;;;;;;10.40;2.75;;;;;;;11.39;53.17;100666.38;5035409;28;20179;-71
2022/05/28 11:52:30;;;;;;;11.80;3.63;;;;;;;11.16;54.55;100663.47;5035564;28;20088;-71